IGO7563 VOHS-VAKP
Flight info
| Callsign | IGO7563 |
|---|---|
| Flight time | 1h 5m |
| Altitude | 16000 |
| Route | BOGAT5 BOGAT G208 AGELA DCT KP911 |
| Aircraft | AT76/M-SDFGIRY/S |
Departure
| Time | 2026-05-07 11:56 |
|---|---|
| Airport | Rajiv Gandhi International Airport (VOHS) |
Arrival
| Time | 2026-05-07 13:01 |
|---|---|
| Airport | Kolhapur Airport (VAKP) |
| Time | Latitude | Longitude | Altitude | Speed | Heading |
|---|---|---|---|---|---|
| 2026-05-07 11:23 | 17.23423 | 78.43287 | 1976 ft | 0 kts | 0° |
| 2026-05-07 11:44 | 17.23414 | 78.43286 | 1980 ft | 4 kts | 5° |
| 2026-05-07 11:45 | 17.23388 | 78.43281 | 1979 ft | 4 kts | 27° |
| 2026-05-07 11:45 | 17.23368 | 78.43264 | 1978 ft | 4 kts | 64° |
| 2026-05-07 11:45 | 17.23363 | 78.43250 | 1980 ft | 0 kts | 89° |
| 2026-05-07 11:47 | 17.23363 | 78.43261 | 1977 ft | 7 kts | 90° |
| 2026-05-07 11:47 | 17.23364 | 78.43352 | 1976 ft | 14 kts | 89° |
| 2026-05-07 11:48 | 17.23366 | 78.43444 | 1976 ft | 14 kts | 89° |
| 2026-05-07 11:48 | 17.23367 | 78.43568 | 1976 ft | 17 kts | 89° |
| 2026-05-07 11:48 | 17.23365 | 78.43672 | 1976 ft | 12 kts | 108° |
| 2026-05-07 11:48 | 17.23309 | 78.43696 | 1976 ft | 8 kts | 179° |
| 2026-05-07 11:49 | 17.23240 | 78.43697 | 1978 ft | 13 kts | 179° |
| 2026-05-07 11:49 | 17.23190 | 78.43698 | 1980 ft | 0 kts | 179° |
| 2026-05-07 11:49 | 17.23186 | 78.43698 | 1979 ft | 1 kts | 179° |
| 2026-05-07 11:50 | 17.23127 | 78.43703 | 1977 ft | 19 kts | 161° |
| 2026-05-07 11:50 | 17.23093 | 78.43836 | 1976 ft | 18 kts | 88° |
| 2026-05-07 11:50 | 17.23095 | 78.43942 | 1977 ft | 12 kts | 89° |
| 2026-05-07 11:50 | 17.23097 | 78.44054 | 1978 ft | 21 kts | 89° |
| 2026-05-07 11:51 | 17.23099 | 78.44203 | 1980 ft | 18 kts | 89° |
| 2026-05-07 11:51 | 17.23100 | 78.44314 | 1977 ft | 15 kts | 89° |
| 2026-05-07 11:51 | 17.23101 | 78.44451 | 1977 ft | 25 kts | 89° |
| 2026-05-07 11:51 | 17.23103 | 78.44588 | 1977 ft | 15 kts | 89° |
| 2026-05-07 11:52 | 17.23105 | 78.44684 | 1977 ft | 15 kts | 89° |
| 2026-05-07 11:52 | 17.23103 | 78.44820 | 1976 ft | 17 kts | 90° |
| 2026-05-07 11:52 | 17.23088 | 78.44920 | 1976 ft | 11 kts | 139° |
| 2026-05-07 11:52 | 17.23024 | 78.44927 | 1976 ft | 6 kts | 179° |
| 2026-05-07 11:53 | 17.23019 | 78.44927 | 1976 ft | 1 kts | 179° |
| 2026-05-07 11:53 | 17.23007 | 78.44927 | 1978 ft | 6 kts | 179° |
| 2026-05-07 11:53 | 17.22920 | 78.44921 | 1977 ft | 13 kts | 207° |
| 2026-05-07 11:53 | 17.22904 | 78.44835 | 1977 ft | 14 kts | 268° |
| 2026-05-07 11:54 | 17.22904 | 78.44812 | 1977 ft | 0 kts | 269° |
| 2026-05-07 11:54 | 17.22903 | 78.44741 | 1977 ft | 27 kts | 269° |
| 2026-05-07 11:54 | 17.22897 | 78.44396 | 1978 ft | 70 kts | 268° |
| 2026-05-07 11:54 | 17.22890 | 78.43710 | 1977 ft | 119 kts | 268° |
| 2026-05-07 11:55 | 17.22870 | 78.42707 | 2077 ft | 149 kts | 267° |
| 2026-05-07 11:55 | 17.22822 | 78.41603 | 2423 ft | 163 kts | 265° |
| 2026-05-07 11:55 | 17.22745 | 78.40231 | 2206 ft | 213 kts | 267° |
| 2026-05-07 11:55 | 17.22693 | 78.38677 | 2538 ft | 217 kts | 268° |
| 2026-05-07 11:56 | 17.22583 | 78.37075 | 2803 ft | 232 kts | 265° |
| 2026-05-07 11:56 | 17.22532 | 78.35310 | 2826 ft | 250 kts | 269° |
| 2026-05-07 11:56 | 17.22493 | 78.33543 | 3306 ft | 236 kts | 263° |
| 2026-05-07 11:56 | 17.21847 | 78.32007 | 3345 ft | 233 kts | 226° |
| 2026-05-07 11:57 | 17.20479 | 78.31177 | 3361 ft | 229 kts | 189° |
| 2026-05-07 11:57 | 17.18961 | 78.31331 | 3525 ft | 212 kts | 159° |
| 2026-05-07 11:57 | 17.17595 | 78.31795 | 3834 ft | 203 kts | 160° |
| 2026-05-07 11:57 | 17.16261 | 78.32216 | 4124 ft | 199 kts | 161° |
| 2026-05-07 11:58 | 17.14920 | 78.32658 | 4326 ft | 205 kts | 160° |
| 2026-05-07 11:58 | 17.13544 | 78.33071 | 4507 ft | 206 kts | 169° |
| 2026-05-07 11:58 | 17.12099 | 78.33146 | 4714 ft | 209 kts | 178° |
| 2026-05-07 11:58 | 17.10635 | 78.33121 | 4936 ft | 211 kts | 179° |
| 2026-05-07 11:59 | 17.09160 | 78.33086 | 5142 ft | 213 kts | 179° |
| 2026-05-07 11:59 | 17.07677 | 78.33064 | 5363 ft | 212 kts | 180° |
| 2026-05-07 11:59 | 17.06317 | 78.32536 | 5577 ft | 216 kts | 220° |
| 2026-05-07 11:59 | 17.05394 | 78.31299 | 5781 ft | 219 kts | 238° |
| 2026-05-07 12:00 | 17.04730 | 78.29863 | 5993 ft | 220 kts | 248° |
| 2026-05-07 12:00 | 17.04251 | 78.28362 | 6214 ft | 221 kts | 253° |
| 2026-05-07 12:00 | 17.03834 | 78.26788 | 6437 ft | 222 kts | 254° |
| 2026-05-07 12:00 | 17.03429 | 78.25247 | 6639 ft | 223 kts | 254° |
| 2026-05-07 12:01 | 17.03002 | 78.23661 | 6847 ft | 224 kts | 253° |
| 2026-05-07 12:01 | 17.02558 | 78.22098 | 7047 ft | 224 kts | 253° |
| 2026-05-07 12:01 | 17.02104 | 78.20539 | 7250 ft | 224 kts | 253° |
| 2026-05-07 12:01 | 17.01655 | 78.19005 | 7466 ft | 224 kts | 253° |
| 2026-05-07 12:02 | 17.01200 | 78.17448 | 7678 ft | 224 kts | 253° |
| 2026-05-07 12:02 | 17.00745 | 78.15898 | 7915 ft | 223 kts | 253° |
| 2026-05-07 12:02 | 17.00288 | 78.14348 | 8157 ft | 223 kts | 253° |
| 2026-05-07 12:02 | 16.99836 | 78.12801 | 8403 ft | 223 kts | 253° |
| 2026-05-07 12:03 | 16.99381 | 78.11252 | 8646 ft | 223 kts | 253° |
| 2026-05-07 12:03 | 16.98925 | 78.09711 | 8879 ft | 222 kts | 254° |
| 2026-05-07 12:03 | 16.98474 | 78.08168 | 9128 ft | 222 kts | 254° |
| 2026-05-07 12:03 | 16.98023 | 78.06629 | 9377 ft | 221 kts | 254° |
| 2026-05-07 12:04 | 16.97571 | 78.05095 | 9633 ft | 221 kts | 254° |
| 2026-05-07 12:04 | 16.97117 | 78.03562 | 9859 ft | 220 kts | 254° |
| 2026-05-07 12:04 | 16.96668 | 78.02033 | 10082 ft | 220 kts | 254° |
| 2026-05-07 12:04 | 16.96223 | 78.00512 | 10315 ft | 219 kts | 254° |
| 2026-05-07 12:05 | 16.95776 | 77.98995 | 10548 ft | 218 kts | 254° |
| 2026-05-07 12:05 | 16.95320 | 77.97489 | 10779 ft | 217 kts | 254° |
| 2026-05-07 12:05 | 16.94866 | 77.95986 | 11011 ft | 216 kts | 254° |
| 2026-05-07 12:05 | 16.94413 | 77.94497 | 11230 ft | 215 kts | 254° |
| 2026-05-07 12:06 | 16.93961 | 77.93016 | 11476 ft | 214 kts | 254° |
| 2026-05-07 12:06 | 16.93521 | 77.91540 | 11723 ft | 213 kts | 254° |
| 2026-05-07 12:06 | 16.93087 | 77.90065 | 11967 ft | 212 kts | 254° |
| 2026-05-07 12:06 | 16.92650 | 77.88596 | 12207 ft | 211 kts | 255° |
| 2026-05-07 12:07 | 16.92219 | 77.87137 | 12452 ft | 210 kts | 254° |
| 2026-05-07 12:07 | 16.91793 | 77.85685 | 12703 ft | 209 kts | 254° |
| 2026-05-07 12:07 | 16.91364 | 77.84244 | 12952 ft | 207 kts | 254° |
| 2026-05-07 12:07 | 16.90945 | 77.82831 | 13196 ft | 206 kts | 254° |
| 2026-05-07 12:08 | 16.90525 | 77.81408 | 13448 ft | 204 kts | 255° |
| 2026-05-07 12:08 | 16.90111 | 77.80001 | 13689 ft | 202 kts | 254° |
| 2026-05-07 12:08 | 16.89699 | 77.78604 | 13913 ft | 200 kts | 254° |
| 2026-05-07 12:08 | 16.89287 | 77.77222 | 14143 ft | 198 kts | 255° |
| 2026-05-07 12:09 | 16.88883 | 77.75853 | 14370 ft | 197 kts | 254° |
| 2026-05-07 12:09 | 16.88479 | 77.74495 | 14601 ft | 195 kts | 255° |
| 2026-05-07 12:09 | 16.88082 | 77.73150 | 14830 ft | 193 kts | 254° |
| 2026-05-07 12:09 | 16.87689 | 77.71822 | 15060 ft | 191 kts | 254° |
| 2026-05-07 12:10 | 16.87298 | 77.70502 | 15247 ft | 191 kts | 255° |
| 2026-05-07 12:10 | 16.86904 | 77.69166 | 15385 ft | 194 kts | 254° |
| 2026-05-07 12:10 | 16.86505 | 77.67810 | 15528 ft | 196 kts | 254° |
| 2026-05-07 12:10 | 16.86099 | 77.66439 | 15663 ft | 199 kts | 254° |
| 2026-05-07 12:11 | 16.85692 | 77.65045 | 15758 ft | 204 kts | 255° |
| 2026-05-07 12:11 | 16.85273 | 77.63609 | 15799 ft | 210 kts | 254° |
| 2026-05-07 12:11 | 16.84840 | 77.62126 | 15820 ft | 217 kts | 255° |
| 2026-05-07 12:11 | 16.84398 | 77.60597 | 15831 ft | 223 kts | 255° |
| 2026-05-07 12:12 | 16.83945 | 77.59023 | 15833 ft | 229 kts | 255° |
| 2026-05-07 12:12 | 16.83481 | 77.57440 | 15836 ft | 234 kts | 254° |
| 2026-05-07 12:12 | 16.82997 | 77.55806 | 15837 ft | 238 kts | 254° |
| 2026-05-07 12:12 | 16.82500 | 77.54142 | 15837 ft | 243 kts | 254° |
| 2026-05-07 12:13 | 16.81999 | 77.52449 | 15835 ft | 246 kts | 254° |
| 2026-05-07 12:13 | 16.81495 | 77.50751 | 15919 ft | 244 kts | 254° |
| 2026-05-07 12:13 | 16.80991 | 77.49061 | 15957 ft | 244 kts | 254° |
| 2026-05-07 12:13 | 16.80487 | 77.47364 | 15975 ft | 246 kts | 254° |
| 2026-05-07 12:14 | 16.79979 | 77.45658 | 15976 ft | 247 kts | 254° |
| 2026-05-07 12:14 | 16.79467 | 77.43943 | 15988 ft | 248 kts | 254° |
| 2026-05-07 12:14 | 16.78954 | 77.42215 | 15988 ft | 250 kts | 254° |
| 2026-05-07 12:14 | 16.78438 | 77.40484 | 15982 ft | 251 kts | 254° |
| 2026-05-07 12:15 | 16.77918 | 77.38743 | 15995 ft | 251 kts | 254° |
| 2026-05-07 12:15 | 16.77398 | 77.36999 | 15979 ft | 252 kts | 254° |
| 2026-05-07 12:15 | 16.76877 | 77.35253 | 15977 ft | 253 kts | 254° |
| 2026-05-07 12:15 | 16.76354 | 77.33500 | 15981 ft | 253 kts | 254° |
| 2026-05-07 12:16 | 16.75832 | 77.31749 | 15976 ft | 253 kts | 254° |
| 2026-05-07 12:16 | 16.75307 | 77.29991 | 15979 ft | 254 kts | 254° |
| 2026-05-07 12:16 | 16.74783 | 77.28235 | 15978 ft | 254 kts | 254° |
| 2026-05-07 12:16 | 16.74265 | 77.26500 | 15979 ft | 254 kts | 254° |
| 2026-05-07 12:17 | 16.73739 | 77.24740 | 15984 ft | 254 kts | 254° |
| 2026-05-07 12:17 | 16.73213 | 77.22981 | 15976 ft | 254 kts | 254° |
| 2026-05-07 12:17 | 16.72686 | 77.21217 | 15973 ft | 254 kts | 253° |
| 2026-05-07 12:17 | 16.72158 | 77.19457 | 15973 ft | 255 kts | 254° |
| 2026-05-07 12:18 | 16.71630 | 77.17695 | 15968 ft | 255 kts | 254° |
| 2026-05-07 12:18 | 16.71104 | 77.15933 | 15975 ft | 255 kts | 254° |
| 2026-05-07 12:18 | 16.70576 | 77.14169 | 15968 ft | 255 kts | 254° |
| 2026-05-07 12:18 | 16.70049 | 77.12408 | 15974 ft | 255 kts | 254° |
| 2026-05-07 12:19 | 16.69519 | 77.10643 | 15975 ft | 255 kts | 254° |
| 2026-05-07 12:19 | 16.68991 | 77.08883 | 15979 ft | 255 kts | 253° |
| 2026-05-07 12:19 | 16.68463 | 77.07120 | 15966 ft | 255 kts | 254° |
| 2026-05-07 12:19 | 16.67935 | 77.05357 | 15968 ft | 255 kts | 254° |
| 2026-05-07 12:20 | 16.67404 | 77.03594 | 15965 ft | 255 kts | 254° |
| 2026-05-07 12:20 | 16.66875 | 77.01832 | 15969 ft | 255 kts | 254° |
| 2026-05-07 12:20 | 16.66525 | 77.00663 | 15967 ft | 255 kts | 254° |
| 2026-05-07 12:20 | 16.65815 | 76.98302 | 15963 ft | 255 kts | 254° |
| 2026-05-07 12:21 | 16.65286 | 76.96539 | 15972 ft | 255 kts | 254° |
| 2026-05-07 12:21 | 16.64755 | 76.94776 | 15972 ft | 255 kts | 254° |
| 2026-05-07 12:21 | 16.64403 | 76.93606 | 15963 ft | 255 kts | 253° |
| 2026-05-07 12:21 | 16.63875 | 76.91844 | 15965 ft | 255 kts | 253° |
| 2026-05-07 12:22 | 16.63345 | 76.90080 | 15967 ft | 255 kts | 254° |
| 2026-05-07 12:22 | 16.62813 | 76.88317 | 15967 ft | 255 kts | 253° |
| 2026-05-07 12:22 | 16.62283 | 76.86556 | 15961 ft | 255 kts | 253° |
| 2026-05-07 12:22 | 16.61752 | 76.84796 | 15961 ft | 255 kts | 253° |
| 2026-05-07 12:23 | 16.61221 | 76.83032 | 15959 ft | 255 kts | 253° |
| 2026-05-07 12:23 | 16.60691 | 76.81271 | 15966 ft | 255 kts | 253° |
| 2026-05-07 12:23 | 16.60158 | 76.79507 | 15965 ft | 255 kts | 253° |
| 2026-05-07 12:23 | 16.59628 | 76.77745 | 15968 ft | 255 kts | 253° |
| 2026-05-07 12:24 | 16.59094 | 76.75980 | 15960 ft | 255 kts | 253° |
| 2026-05-07 12:24 | 16.58560 | 76.74214 | 15963 ft | 256 kts | 253° |
| 2026-05-07 12:24 | 16.58028 | 76.72446 | 15962 ft | 256 kts | 253° |
| 2026-05-07 12:24 | 16.57493 | 76.70677 | 15962 ft | 256 kts | 253° |
| 2026-05-07 12:25 | 16.56961 | 76.68912 | 15964 ft | 255 kts | 253° |
| 2026-05-07 12:25 | 16.56426 | 76.67143 | 15961 ft | 256 kts | 253° |
| 2026-05-07 12:25 | 16.55892 | 76.65376 | 15962 ft | 256 kts | 253° |
| 2026-05-07 12:25 | 16.55359 | 76.63607 | 15965 ft | 256 kts | 253° |
| 2026-05-07 12:26 | 16.54822 | 76.61840 | 15968 ft | 256 kts | 253° |
| 2026-05-07 12:26 | 16.54288 | 76.60071 | 15972 ft | 256 kts | 253° |
| 2026-05-07 12:26 | 16.53754 | 76.58303 | 15965 ft | 256 kts | 253° |
| 2026-05-07 12:26 | 16.53216 | 76.56535 | 15966 ft | 256 kts | 253° |
| 2026-05-07 12:27 | 16.52678 | 76.54765 | 15966 ft | 256 kts | 253° |
| 2026-05-07 12:27 | 16.52145 | 76.52997 | 15969 ft | 256 kts | 253° |
| 2026-05-07 12:27 | 16.51617 | 76.51254 | 15962 ft | 256 kts | 253° |
| 2026-05-07 12:27 | 16.51082 | 76.49486 | 15967 ft | 256 kts | 253° |
| 2026-05-07 12:28 | 16.50543 | 76.47716 | 15974 ft | 256 kts | 253° |
| 2026-05-07 12:28 | 16.50007 | 76.45947 | 15970 ft | 256 kts | 253° |
| 2026-05-07 12:28 | 16.49470 | 76.44172 | 15969 ft | 257 kts | 253° |
| 2026-05-07 12:28 | 16.48932 | 76.42401 | 15974 ft | 257 kts | 253° |
| 2026-05-07 12:29 | 16.48393 | 76.40627 | 15972 ft | 257 kts | 253° |
| 2026-05-07 12:29 | 16.47854 | 76.38851 | 15976 ft | 257 kts | 253° |
| 2026-05-07 12:29 | 16.47314 | 76.37074 | 15970 ft | 257 kts | 253° |
| 2026-05-07 12:29 | 16.46773 | 76.35298 | 15979 ft | 257 kts | 253° |
| 2026-05-07 12:30 | 16.46233 | 76.33519 | 15978 ft | 257 kts | 253° |
| 2026-05-07 12:30 | 16.45691 | 76.31743 | 15984 ft | 257 kts | 253° |
| 2026-05-07 12:30 | 16.45150 | 76.29966 | 15972 ft | 257 kts | 253° |
| 2026-05-07 12:30 | 16.44610 | 76.28186 | 15976 ft | 257 kts | 253° |
| 2026-05-07 12:31 | 16.44069 | 76.26410 | 15975 ft | 257 kts | 253° |
| 2026-05-07 12:31 | 16.43528 | 76.24632 | 15972 ft | 258 kts | 253° |
| 2026-05-07 12:31 | 16.42985 | 76.22855 | 15974 ft | 258 kts | 253° |
| 2026-05-07 12:31 | 16.42444 | 76.21076 | 15982 ft | 258 kts | 253° |
| 2026-05-07 12:32 | 16.41901 | 76.19297 | 15980 ft | 258 kts | 253° |
| 2026-05-07 12:32 | 16.41359 | 76.17520 | 15981 ft | 258 kts | 253° |
| 2026-05-07 12:32 | 16.40817 | 76.15741 | 15979 ft | 258 kts | 253° |
| 2026-05-07 12:32 | 16.40274 | 76.13964 | 15981 ft | 258 kts | 253° |
| 2026-05-07 12:33 | 16.39190 | 76.10428 | 15976 ft | 258 kts | 254° |
| 2026-05-07 12:33 | 16.38650 | 76.08647 | 15979 ft | 258 kts | 253° |
| 2026-05-07 12:33 | 16.38106 | 76.06866 | 15984 ft | 258 kts | 253° |
| 2026-05-07 12:34 | 16.37562 | 76.05082 | 15977 ft | 259 kts | 253° |
| 2026-05-07 12:34 | 16.37013 | 76.03293 | 15899 ft | 262 kts | 253° |
| 2026-05-07 12:34 | 16.36457 | 76.01469 | 15776 ft | 265 kts | 254° |
| 2026-05-07 12:34 | 16.36254 | 75.99591 | 15672 ft | 263 kts | 280° |
| 2026-05-07 12:35 | 16.36785 | 75.97771 | 15578 ft | 265 kts | 294° |
| 2026-05-07 12:35 | 16.37602 | 75.96042 | 15482 ft | 267 kts | 298° |
| 2026-05-07 12:35 | 16.38484 | 75.94332 | 15387 ft | 269 kts | 299° |
| 2026-05-07 12:35 | 16.39356 | 75.92607 | 15299 ft | 270 kts | 298° |
| 2026-05-07 12:36 | 16.40191 | 75.90852 | 15193 ft | 271 kts | 297° |
| 2026-05-07 12:36 | 16.41005 | 75.89085 | 15102 ft | 271 kts | 297° |
| 2026-05-07 12:36 | 16.41827 | 75.87316 | 15011 ft | 272 kts | 297° |
| 2026-05-07 12:36 | 16.42650 | 75.85545 | 14923 ft | 272 kts | 297° |
| 2026-05-07 12:37 | 16.43474 | 75.83766 | 14828 ft | 273 kts | 297° |
| 2026-05-07 12:37 | 16.44303 | 75.81986 | 14736 ft | 273 kts | 297° |
| 2026-05-07 12:37 | 16.45129 | 75.80201 | 14646 ft | 274 kts | 297° |
| 2026-05-07 12:37 | 16.45958 | 75.78419 | 14555 ft | 274 kts | 297° |
| 2026-05-07 12:38 | 16.46790 | 75.76630 | 14465 ft | 274 kts | 296° |
| 2026-05-07 12:38 | 16.47618 | 75.74842 | 14373 ft | 274 kts | 297° |
| 2026-05-07 12:38 | 16.48450 | 75.73053 | 14282 ft | 275 kts | 296° |
| 2026-05-07 12:38 | 16.49277 | 75.71263 | 14192 ft | 275 kts | 297° |
| 2026-05-07 12:39 | 16.50111 | 75.69470 | 14098 ft | 275 kts | 296° |
| 2026-05-07 12:39 | 16.50941 | 75.67675 | 14006 ft | 275 kts | 297° |
| 2026-05-07 12:39 | 16.51774 | 75.65880 | 13911 ft | 275 kts | 296° |
| 2026-05-07 12:39 | 16.52606 | 75.64084 | 13824 ft | 275 kts | 297° |
| 2026-05-07 12:40 | 16.53436 | 75.62287 | 13735 ft | 275 kts | 296° |
| 2026-05-07 12:40 | 16.54270 | 75.60491 | 13644 ft | 275 kts | 296° |
| 2026-05-07 12:40 | 16.55090 | 75.58710 | 13505 ft | 277 kts | 297° |
| 2026-05-07 12:40 | 16.55929 | 75.56901 | 13340 ft | 278 kts | 297° |
| 2026-05-07 12:41 | 16.56772 | 75.55081 | 13133 ft | 280 kts | 297° |
| 2026-05-07 12:41 | 16.57624 | 75.53240 | 12934 ft | 282 kts | 297° |
| 2026-05-07 12:41 | 16.58480 | 75.51392 | 12734 ft | 284 kts | 297° |
| 2026-05-07 12:41 | 16.59335 | 75.49538 | 12529 ft | 285 kts | 297° |
| 2026-05-07 12:42 | 16.60198 | 75.47676 | 12338 ft | 285 kts | 297° |
| 2026-05-07 12:42 | 16.60992 | 75.45784 | 12140 ft | 285 kts | 288° |
| 2026-05-07 12:42 | 16.61373 | 75.43763 | 11941 ft | 284 kts | 280° |
| 2026-05-07 12:42 | 16.61663 | 75.41725 | 11747 ft | 284 kts | 279° |
| 2026-05-07 12:43 | 16.61975 | 75.39689 | 11553 ft | 285 kts | 281° |
| 2026-05-07 12:43 | 16.62350 | 75.37660 | 11362 ft | 285 kts | 283° |
| 2026-05-07 12:43 | 16.62755 | 75.35635 | 11174 ft | 286 kts | 283° |
| 2026-05-07 12:43 | 16.63151 | 75.33603 | 10990 ft | 286 kts | 282° |
| 2026-05-07 12:44 | 16.63541 | 75.31574 | 10795 ft | 286 kts | 283° |
| 2026-05-07 12:44 | 16.63934 | 75.29540 | 10608 ft | 286 kts | 283° |
| 2026-05-07 12:44 | 16.64330 | 75.27509 | 10424 ft | 286 kts | 283° |
| 2026-05-07 12:44 | 16.64720 | 75.25478 | 10236 ft | 286 kts | 283° |
| 2026-05-07 12:45 | 16.65113 | 75.23446 | 10055 ft | 286 kts | 283° |
| 2026-05-07 12:45 | 16.65503 | 75.21410 | 9878 ft | 286 kts | 283° |
| 2026-05-07 12:45 | 16.65890 | 75.19408 | 9696 ft | 285 kts | 283° |
| 2026-05-07 12:45 | 16.66280 | 75.17387 | 9493 ft | 285 kts | 283° |
| 2026-05-07 12:46 | 16.66667 | 75.15373 | 9289 ft | 281 kts | 283° |
| 2026-05-07 12:46 | 16.67049 | 75.13384 | 9094 ft | 278 kts | 282° |
| 2026-05-07 12:46 | 16.67426 | 75.11409 | 8895 ft | 276 kts | 282° |
| 2026-05-07 12:46 | 16.67805 | 75.09449 | 8701 ft | 275 kts | 282° |
| 2026-05-07 12:47 | 16.68179 | 75.07493 | 8505 ft | 274 kts | 282° |
| 2026-05-07 12:47 | 16.68555 | 75.05545 | 8320 ft | 274 kts | 282° |
| 2026-05-07 12:47 | 16.68931 | 75.03596 | 8128 ft | 275 kts | 282° |
| 2026-05-07 12:47 | 16.69303 | 75.01642 | 7934 ft | 275 kts | 282° |
| 2026-05-07 12:48 | 16.69679 | 74.99681 | 7744 ft | 276 kts | 282° |
| 2026-05-07 12:48 | 16.70052 | 74.97717 | 7550 ft | 276 kts | 282° |
| 2026-05-07 12:48 | 16.70429 | 74.95771 | 7359 ft | 272 kts | 282° |
| 2026-05-07 12:48 | 16.70796 | 74.93853 | 7168 ft | 267 kts | 281° |
| 2026-05-07 12:49 | 16.71156 | 74.91956 | 6937 ft | 265 kts | 281° |
| 2026-05-07 12:49 | 16.71510 | 74.90086 | 6703 ft | 261 kts | 281° |
| 2026-05-07 12:49 | 16.71863 | 74.88239 | 6475 ft | 257 kts | 281° |
| 2026-05-07 12:49 | 16.72211 | 74.86419 | 6248 ft | 255 kts | 281° |
| 2026-05-07 12:50 | 16.72554 | 74.84615 | 6026 ft | 252 kts | 281° |
| 2026-05-07 12:50 | 16.72893 | 74.82835 | 5828 ft | 249 kts | 281° |
| 2026-05-07 12:50 | 16.73227 | 74.81076 | 5633 ft | 245 kts | 281° |
| 2026-05-07 12:50 | 16.73559 | 74.79343 | 5441 ft | 242 kts | 281° |
| 2026-05-07 12:51 | 16.73884 | 74.77651 | 5263 ft | 240 kts | 280° |
| 2026-05-07 12:51 | 16.74208 | 74.75944 | 5121 ft | 235 kts | 280° |
| 2026-05-07 12:51 | 16.74517 | 74.74308 | 4992 ft | 232 kts | 280° |
| 2026-05-07 12:51 | 16.74827 | 74.72666 | 4860 ft | 230 kts | 280° |
| 2026-05-07 12:52 | 16.75143 | 74.71045 | 4727 ft | 227 kts | 279° |
| 2026-05-07 12:52 | 16.75457 | 74.69439 | 4639 ft | 224 kts | 280° |
| 2026-05-07 12:52 | 16.75767 | 74.67855 | 4519 ft | 221 kts | 280° |
| 2026-05-07 12:52 | 16.76073 | 74.66300 | 4413 ft | 217 kts | 280° |
| 2026-05-07 12:53 | 16.76379 | 74.64770 | 4330 ft | 214 kts | 279° |
| 2026-05-07 12:53 | 16.76671 | 74.63249 | 4252 ft | 213 kts | 279° |
| 2026-05-07 12:53 | 16.76958 | 74.61731 | 4168 ft | 213 kts | 279° |
| 2026-05-07 12:53 | 16.77239 | 74.60216 | 4082 ft | 213 kts | 279° |
| 2026-05-07 12:54 | 16.77264 | 74.58716 | 4037 ft | 205 kts | 253° |
| 2026-05-07 12:54 | 16.76778 | 74.57337 | 4004 ft | 201 kts | 247° |
| 2026-05-07 12:54 | 16.76243 | 74.55996 | 4007 ft | 199 kts | 247° |
| 2026-05-07 12:54 | 16.75711 | 74.54669 | 4005 ft | 197 kts | 247° |
| 2026-05-07 12:55 | 16.75197 | 74.53344 | 4000 ft | 196 kts | 248° |
| 2026-05-07 12:55 | 16.74712 | 74.52021 | 3985 ft | 194 kts | 250° |
| 2026-05-07 12:55 | 16.74254 | 74.50716 | 4000 ft | 190 kts | 250° |
| 2026-05-07 12:55 | 16.73806 | 74.49430 | 4002 ft | 187 kts | 250° |
| 2026-05-07 12:56 | 16.73360 | 74.48158 | 4005 ft | 185 kts | 250° |
| 2026-05-07 12:56 | 16.72929 | 74.46934 | 4006 ft | 179 kts | 250° |
| 2026-05-07 12:56 | 16.72509 | 74.45736 | 4013 ft | 173 kts | 250° |
| 2026-05-07 12:56 | 16.72104 | 74.44570 | 3998 ft | 169 kts | 250° |
| 2026-05-07 12:57 | 16.71703 | 74.43431 | 4029 ft | 166 kts | 249° |
| 2026-05-07 12:57 | 16.71297 | 74.42296 | 4014 ft | 167 kts | 249° |
| 2026-05-07 12:57 | 16.70891 | 74.41155 | 4026 ft | 168 kts | 249° |
| 2026-05-07 12:57 | 16.70493 | 74.40041 | 3995 ft | 160 kts | 249° |
| 2026-05-07 12:58 | 16.70103 | 74.38943 | 3818 ft | 163 kts | 249° |
| 2026-05-07 12:58 | 16.69702 | 74.37832 | 3630 ft | 162 kts | 249° |
| 2026-05-07 12:58 | 16.69303 | 74.36751 | 3426 ft | 155 kts | 249° |
| 2026-05-07 12:58 | 16.68944 | 74.35775 | 3280 ft | 135 kts | 250° |
| 2026-05-07 12:59 | 16.68610 | 74.34900 | 3106 ft | 125 kts | 250° |
| 2026-05-07 12:59 | 16.68318 | 74.34083 | 2929 ft | 117 kts | 250° |
| 2026-05-07 12:59 | 16.68038 | 74.33298 | 2774 ft | 115 kts | 252° |
| 2026-05-07 12:59 | 16.67746 | 74.32519 | 2630 ft | 115 kts | 251° |
| 2026-05-07 13:00 | 16.67473 | 74.31742 | 2438 ft | 112 kts | 252° |
| 2026-05-07 13:00 | 16.67193 | 74.31005 | 2226 ft | 106 kts | 253° |
| 2026-05-07 13:00 | 16.66955 | 74.30272 | 2152 ft | 109 kts | 262° |
| 2026-05-07 13:00 | 16.66685 | 74.29518 | 2062 ft | 110 kts | 258° |
| 2026-05-07 13:01 | 16.66436 | 74.28814 | 2003 ft | 100 kts | 253° |
| 2026-05-07 13:01 | 16.66291 | 74.28360 | 2007 ft | 24 kts | 249° |
| 2026-05-07 13:01 | 16.66265 | 74.28272 | 2007 ft | 4 kts | 202° |
| 2026-05-07 13:01 | 16.66259 | 74.28284 | 2006 ft | 6 kts | 90° |
| 2026-05-07 13:02 | 16.66283 | 74.28347 | 2003 ft | 12 kts | 54° |
| 2026-05-07 13:02 | 16.66334 | 74.28354 | 2004 ft | 1 kts | 337° |
| 2026-05-07 13:02 | 16.66339 | 74.28352 | 2005 ft | 1 kts | 337° |
| 2026-05-07 13:03 | 16.66354 | 74.28346 | 2007 ft | 5 kts | 337° |
| 2026-05-07 13:03 | 16.66393 | 74.28328 | 2008 ft | 5 kts | 336° |
| 2026-05-07 13:03 | 16.66430 | 74.28313 | 2008 ft | 8 kts | 342° |
| 2026-05-07 13:03 | 16.66453 | 74.28312 | 2007 ft | 4 kts | 4° |
| 2026-05-07 13:04 | 16.66477 | 74.28305 | 2006 ft | 0 kts | 350° |